sensor_id;sensor_type;location;lat;lon;timestamp;P1;durP1;ratioP1;P2;durP2;ratioP2
20381;SDS011;10350;51.280;12.400;2022-07-11T00:02:03;1.38;;;0.93;;
20381;SDS011;10350;51.280;12.400;2022-07-11T00:04:29;1.23;;;0.77;;
20381;SDS011;10350;51.280;12.400;2022-07-11T00:06:55;2.63;;;1.00;;
20381;SDS011;10350;51.280;12.400;2022-07-11T00:09:21;1.65;;;0.75;;
20381;SDS011;10350;51.280;12.400;2022-07-11T00:11:48;2.22;;;1.00;;
20381;SDS011;10350;51.280;12.400;2022-07-11T00:14:14;2.05;;;1.17;;
20381;SDS011;10350;51.280;12.400;2022-07-11T00:16:40;1.73;;;1.00;;
20381;SDS011;10350;51.280;12.400;2022-07-11T00:19:06;5.00;;;1.00;;
20381;SDS011;10350;51.280;12.400;2022-07-11T00:21:32;2.15;;;1.00;;
20381;SDS011;10350;51.280;12.400;2022-07-11T00:24:00;2.28;;;1.00;;
20381;SDS011;10350;51.280;12.400;2022-07-11T00:26:26;2.10;;;1.08;;
20381;SDS011;10350;51.280;12.400;2022-07-11T00:28:52;1.60;;;1.25;;
20381;SDS011;10350;51.280;12.400;2022-07-11T00:31:18;1.23;;;0.90;;
20381;SDS011;10350;51.280;12.400;2022-07-11T00:33:44;1.40;;;1.00;;
20381;SDS011;10350;51.280;12.400;2022-07-11T00:36:10;2.00;;;1.00;;
20381;SDS011;10350;51.280;12.400;2022-07-11T00:38:36;2.72;;;1.00;;
20381;SDS011;10350;51.280;12.400;2022-07-11T00:41:02;2.22;;;1.17;;
20381;SDS011;10350;51.280;12.400;2022-07-11T00:43:31;1.50;;;0.90;;
20381;SDS011;10350;51.280;12.400;2022-07-11T00:45:58;1.73;;;0.80;;
20381;SDS011;10350;51.280;12.400;2022-07-11T00:48:24;1.35;;;0.90;;
20381;SDS011;10350;51.280;12.400;2022-07-11T00:50:50;3.30;;;1.35;;
20381;SDS011;10350;51.280;12.400;2022-07-11T00:53:16;5.20;;;1.30;;
20381;SDS011;10350;51.280;12.400;2022-07-11T00:55:43;1.92;;;1.05;;
20381;SDS011;10350;51.280;12.400;2022-07-11T00:58:09;1.92;;;1.08;;
20381;SDS011;10350;51.280;12.400;2022-07-11T01:00:35;2.85;;;1.20;;
20381;SDS011;10350;51.280;12.400;2022-07-11T01:03:01;0.82;;;0.82;;
20381;SDS011;10350;51.280;12.400;2022-07-11T01:05:27;1.00;;;0.88;;
20381;SDS011;10350;51.280;12.400;2022-07-11T01:07:54;1.30;;;0.85;;
20381;SDS011;10350;51.280;12.400;2022-07-11T01:10:20;1.75;;;0.90;;
20381;SDS011;10350;51.280;12.400;2022-07-11T01:12:46;3.25;;;1.20;;
20381;SDS011;10350;51.280;12.400;2022-07-11T01:15:13;1.25;;;0.98;;
20381;SDS011;10350;51.280;12.400;2022-07-11T01:17:39;2.58;;;1.02;;
20381;SDS011;10350;51.280;12.400;2022-07-11T01:20:06;2.47;;;1.17;;
20381;SDS011;10350;51.280;12.400;2022-07-11T01:22:34;1.98;;;1.10;;
20381;SDS011;10350;51.280;12.400;2022-07-11T01:25:02;5.47;;;1.10;;
20381;SDS011;10350;51.280;12.400;2022-07-11T01:27:28;4.22;;;1.20;;
20381;SDS011;10350;51.280;12.400;2022-07-11T01:29:54;3.15;;;1.42;;
20381;SDS011;10350;51.280;12.400;2022-07-11T01:32:20;5.05;;;1.92;;
20381;SDS011;10350;51.280;12.400;2022-07-11T01:34:47;4.45;;;1.10;;
20381;SDS011;10350;51.280;12.400;2022-07-11T01:37:13;1.48;;;1.30;;
20381;SDS011;10350;51.280;12.400;2022-07-11T01:39:39;1.42;;;1.20;;
20381;SDS011;10350;51.280;12.400;2022-07-11T01:42:05;2.28;;;1.25;;
20381;SDS011;10350;51.280;12.400;2022-07-11T01:44:31;1.58;;;1.05;;
20381;SDS011;10350;51.280;12.400;2022-07-11T01:46:57;2.38;;;1.20;;
20381;SDS011;10350;51.280;12.400;2022-07-11T01:49:23;1.45;;;1.35;;
20381;SDS011;10350;51.280;12.400;2022-07-11T01:51:54;3.28;;;1.10;;
20381;SDS011;10350;51.280;12.400;2022-07-11T01:54:20;1.10;;;0.90;;
20381;SDS011;10350;51.280;12.400;2022-07-11T01:56:46;2.67;;;1.38;;
20381;SDS011;10350;51.280;12.400;2022-07-11T01:59:12;3.50;;;1.17;;
20381;SDS011;10350;51.280;12.400;2022-07-11T02:01:38;2.22;;;1.20;;
20381;SDS011;10350;51.280;12.400;2022-07-11T02:04:04;1.63;;;1.30;;
20381;SDS011;10350;51.280;12.400;2022-07-11T02:06:30;4.95;;;1.90;;
20381;SDS011;10350;51.280;12.400;2022-07-11T02:08:57;4.40;;;1.20;;
20381;SDS011;10350;51.280;12.400;2022-07-11T02:11:23;1.85;;;1.40;;
20381;SDS011;10350;51.280;12.400;2022-07-11T02:13:49;2.22;;;1.63;;
20381;SDS011;10350;51.280;12.400;2022-07-11T02:16:16;1.95;;;1.10;;
20381;SDS011;10350;51.280;12.400;2022-07-11T02:18:42;2.05;;;1.10;;
20381;SDS011;10350;51.280;12.400;2022-07-11T02:21:08;4.00;;;1.30;;
20381;SDS011;10350;51.280;12.400;2022-07-11T02:23:35;1.50;;;1.30;;
20381;SDS011;10350;51.280;12.400;2022-07-11T02:26:01;3.70;;;1.42;;
20381;SDS011;10350;51.280;12.400;2022-07-11T02:28:27;3.47;;;1.42;;
20381;SDS011;10350;51.280;12.400;2022-07-11T02:30:53;2.78;;;1.50;;
20381;SDS011;10350;51.280;12.400;2022-07-11T02:33:19;2.70;;;1.50;;
20381;SDS011;10350;51.280;12.400;2022-07-11T02:35:45;5.00;;;1.70;;
20381;SDS011;10350;51.280;12.400;2022-07-11T02:38:11;2.65;;;1.73;;
20381;SDS011;10350;51.280;12.400;2022-07-11T02:40:38;6.10;;;1.60;;
20381;SDS011;10350;51.280;12.400;2022-07-11T02:43:04;2.53;;;1.67;;
20381;SDS011;10350;51.280;12.400;2022-07-11T02:45:30;4.50;;;1.88;;
20381;SDS011;10350;51.280;12.400;2022-07-11T02:47:56;5.40;;;2.00;;
20381;SDS011;10350;51.280;12.400;2022-07-11T02:50:23;2.05;;;1.65;;
20381;SDS011;10350;51.280;12.400;2022-07-11T02:52:48;2.70;;;1.75;;
20381;SDS011;10350;51.280;12.400;2022-07-11T02:55:14;3.42;;;1.90;;
20381;SDS011;10350;51.280;12.400;2022-07-11T02:57:41;3.95;;;1.50;;
20381;SDS011;10350;51.280;12.400;2022-07-11T03:00:09;2.58;;;1.42;;
20381;SDS011;10350;51.280;12.400;2022-07-11T03:02:35;2.60;;;1.35;;
20381;SDS011;10350;51.280;12.400;2022-07-11T03:05:01;1.58;;;1.13;;
20381;SDS011;10350;51.280;12.400;2022-07-11T03:07:27;4.32;;;1.15;;
20381;SDS011;10350;51.280;12.400;2022-07-11T03:09:53;3.72;;;1.50;;
20381;SDS011;10350;51.280;12.400;2022-07-11T03:12:20;3.08;;;1.50;;
20381;SDS011;10350;51.280;12.400;2022-07-11T03:14:46;3.20;;;1.50;;
20381;SDS011;10350;51.280;12.400;2022-07-11T03:17:12;2.08;;;1.70;;
20381;SDS011;10350;51.280;12.400;2022-07-11T03:19:38;1.58;;;1.40;;
20381;SDS011;10350;51.280;12.400;2022-07-11T03:22:04;2.47;;;1.60;;
20381;SDS011;10350;51.280;12.400;2022-07-11T03:24:30;2.15;;;1.33;;
20381;SDS011;10350;51.280;12.400;2022-07-11T03:26:56;4.28;;;1.50;;
20381;SDS011;10350;51.280;12.400;2022-07-11T03:29:22;3.53;;;1.05;;
20381;SDS011;10350;51.280;12.400;2022-07-11T03:31:48;2.92;;;1.25;;
20381;SDS011;10350;51.280;12.400;2022-07-11T03:34:14;5.50;;;1.48;;
20381;SDS011;10350;51.280;12.400;2022-07-11T03:36:40;3.38;;;1.20;;
20381;SDS011;10350;51.280;12.400;2022-07-11T03:39:06;3.90;;;1.95;;
20381;SDS011;10350;51.280;12.400;2022-07-11T03:41:32;5.70;;;1.73;;
20381;SDS011;10350;51.280;12.400;2022-07-11T03:43:58;3.13;;;1.60;;
20381;SDS011;10350;51.280;12.400;2022-07-11T03:46:24;2.92;;;1.30;;
20381;SDS011;10350;51.280;12.400;2022-07-11T03:48:50;2.03;;;1.40;;
20381;SDS011;10350;51.280;12.400;2022-07-11T03:51:16;3.10;;;1.45;;
20381;SDS011;10350;51.280;12.400;2022-07-11T03:53:42;4.55;;;1.80;;
20381;SDS011;10350;51.280;12.400;2022-07-11T03:56:09;2.13;;;1.50;;
20381;SDS011;10350;51.280;12.400;2022-07-11T03:58:35;2.75;;;1.88;;
20381;SDS011;10350;51.280;12.400;2022-07-11T04:01:01;4.00;;;1.77;;
20381;SDS011;10350;51.280;12.400;2022-07-11T04:03:27;5.50;;;1.73;;
20381;SDS011;10350;51.280;12.400;2022-07-11T04:05:53;2.92;;;1.60;;
20381;SDS011;10350;51.280;12.400;2022-07-11T04:08:19;5.55;;;1.90;;
20381;SDS011;10350;51.280;12.400;2022-07-11T04:10:45;3.85;;;1.98;;
20381;SDS011;10350;51.280;12.400;2022-07-11T04:13:11;3.72;;;1.70;;
20381;SDS011;10350;51.280;12.400;2022-07-11T04:15:37;3.50;;;1.98;;
20381;SDS011;10350;51.280;12.400;2022-07-11T04:18:03;4.85;;;2.15;;
20381;SDS011;10350;51.280;12.400;2022-07-11T04:20:29;2.20;;;1.80;;
20381;SDS011;10350;51.280;12.400;2022-07-11T04:22:55;5.82;;;1.92;;
20381;SDS011;10350;51.280;12.400;2022-07-11T04:25:21;4.63;;;1.90;;
20381;SDS011;10350;51.280;12.400;2022-07-11T04:27:47;5.43;;;1.58;;
20381;SDS011;10350;51.280;12.400;2022-07-11T04:30:13;2.63;;;1.75;;
20381;SDS011;10350;51.280;12.400;2022-07-11T04:32:39;5.80;;;2.15;;
20381;SDS011;10350;51.280;12.400;2022-07-11T04:35:05;2.63;;;1.80;;
20381;SDS011;10350;51.280;12.400;2022-07-11T04:37:32;3.42;;;1.73;;
20381;SDS011;10350;51.280;12.400;2022-07-11T04:39:58;4.72;;;2.33;;
20381;SDS011;10350;51.280;12.400;2022-07-11T04:42:24;2.97;;;1.45;;
20381;SDS011;10350;51.280;12.400;2022-07-11T04:44:49;4.75;;;1.85;;
20381;SDS011;10350;51.280;12.400;2022-07-11T04:47:15;4.78;;;1.70;;
20381;SDS011;10350;51.280;12.400;2022-07-11T04:49:41;3.42;;;1.30;;
20381;SDS011;10350;51.280;12.400;2022-07-11T04:52:11;2.80;;;1.38;;
20381;SDS011;10350;51.280;12.400;2022-07-11T04:54:37;5.75;;;1.70;;
20381;SDS011;10350;51.280;12.400;2022-07-11T04:57:03;5.00;;;1.70;;
20381;SDS011;10350;51.280;12.400;2022-07-11T04:59:29;2.72;;;1.25;;
20381;SDS011;10350;51.280;12.400;2022-07-11T05:01:55;4.80;;;1.60;;
20381;SDS011;10350;51.280;12.400;2022-07-11T05:04:21;3.58;;;1.30;;
20381;SDS011;10350;51.280;12.400;2022-07-11T05:06:48;4.00;;;1.27;;
20381;SDS011;10350;51.280;12.400;2022-07-11T05:09:14;1.48;;;1.02;;
20381;SDS011;10350;51.280;12.400;2022-07-11T05:11:40;4.10;;;1.15;;
20381;SDS011;10350;51.280;12.400;2022-07-11T05:14:06;2.30;;;1.08;;
20381;SDS011;10350;51.280;12.400;2022-07-11T05:16:32;8.07;;;1.25;;
20381;SDS011;10350;51.280;12.400;2022-07-11T05:18:58;8.68;;;1.42;;
20381;SDS011;10350;51.280;12.400;2022-07-11T05:21:24;2.88;;;0.90;;
20381;SDS011;10350;51.280;12.400;2022-07-11T05:23:50;3.97;;;1.17;;
20381;SDS011;10350;51.280;12.400;2022-07-11T05:26:16;4.22;;;0.90;;
20381;SDS011;10350;51.280;12.400;2022-07-11T05:28:42;4.75;;;1.00;;
20381;SDS011;10350;51.280;12.400;2022-07-11T05:31:08;1.92;;;1.00;;
20381;SDS011;10350;51.280;12.400;2022-07-11T05:33:35;2.83;;;0.90;;
20381;SDS011;10350;51.280;12.400;2022-07-11T05:36:01;2.83;;;0.90;;
20381;SDS011;10350;51.280;12.400;2022-07-11T05:38:28;1.17;;;0.60;;
20381;SDS011;10350;51.280;12.400;2022-07-11T05:40:54;1.83;;;0.80;;
20381;SDS011;10350;51.280;12.400;2022-07-11T05:43:20;3.60;;;1.10;;
20381;SDS011;10350;51.280;12.400;2022-07-11T05:45:48;1.67;;;0.70;;
20381;SDS011;10350;51.280;12.400;2022-07-11T05:48:14;0.75;;;0.50;;
20381;SDS011;10350;51.280;12.400;2022-07-11T05:50:40;2.45;;;0.80;;
20381;SDS011;10350;51.280;12.400;2022-07-11T05:53:06;5.07;;;0.50;;
20381;SDS011;10350;51.280;12.400;2022-07-11T05:55:32;5.50;;;0.70;;
20381;SDS011;10350;51.280;12.400;2022-07-11T05:57:59;1.00;;;0.60;;
20381;SDS011;10350;51.280;12.400;2022-07-11T06:00:25;3.10;;;0.40;;
20381;SDS011;10350;51.280;12.400;2022-07-11T06:02:52;2.00;;;0.50;;
20381;SDS011;10350;51.280;12.400;2022-07-11T06:05:18;3.08;;;0.45;;
20381;SDS011;10350;51.280;12.400;2022-07-11T06:07:44;1.05;;;0.50;;
20381;SDS011;10350;51.280;12.400;2022-07-11T06:10:29;3.75;;;0.40;;
20381;SDS011;10350;51.280;12.400;2022-07-11T06:12:57;3.25;;;0.32;;
20381;SDS011;10350;51.280;12.400;2022-07-11T06:15:23;2.13;;;0.40;;
20381;SDS011;10350;51.280;12.400;2022-07-11T06:17:49;2.58;;;0.43;;
20381;SDS011;10350;51.280;12.400;2022-07-11T06:20:15;1.95;;;0.45;;
20381;SDS011;10350;51.280;12.400;2022-07-11T06:22:41;1.55;;;0.40;;
20381;SDS011;10350;51.280;12.400;2022-07-11T06:25:07;1.75;;;0.32;;
20381;SDS011;10350;51.280;12.400;2022-07-11T06:27:34;1.85;;;0.45;;
20381;SDS011;10350;51.280;12.400;2022-07-11T06:30:00;2.70;;;0.43;;
20381;SDS011;10350;51.280;12.400;2022-07-11T06:32:26;1.77;;;0.60;;
20381;SDS011;10350;51.280;12.400;2022-07-11T06:34:53;1.55;;;0.40;;
20381;SDS011;10350;51.280;12.400;2022-07-11T06:37:19;1.50;;;0.40;;
20381;SDS011;10350;51.280;12.400;2022-07-11T06:39:45;1.35;;;0.73;;
20381;SDS011;10350;51.280;12.400;2022-07-11T06:42:11;1.45;;;0.30;;
20381;SDS011;10350;51.280;12.400;2022-07-11T06:44:37;1.25;;;0.20;;
20381;SDS011;10350;51.280;12.400;2022-07-11T06:47:03;4.45;;;0.40;;
20381;SDS011;10350;51.280;12.400;2022-07-11T06:49:30;3.20;;;0.80;;
20381;SDS011;10350;51.280;12.400;2022-07-11T06:51:56;5.65;;;0.38;;
20381;SDS011;10350;51.280;12.400;2022-07-11T06:54:22;2.13;;;0.55;;
20381;SDS011;10350;51.280;12.400;2022-07-11T06:56:48;5.30;;;0.52;;
20381;SDS011;10350;51.280;12.400;2022-07-11T06:59:14;1.85;;;0.22;;
20381;SDS011;10350;51.280;12.400;2022-07-11T07:01:40;0.63;;;0.10;;
20381;SDS011;10350;51.280;12.400;2022-07-11T07:04:06;2.47;;;0.30;;
20381;SDS011;10350;51.280;12.400;2022-07-11T07:06:32;2.33;;;0.40;;
20381;SDS011;10350;51.280;12.400;2022-07-11T07:08:58;0.90;;;0.32;;
20381;SDS011;10350;51.280;12.400;2022-07-11T07:11:23;4.15;;;0.43;;
20381;SDS011;10350;51.280;12.400;2022-07-11T07:13:49;2.70;;;0.20;;
20381;SDS011;10350;51.280;12.400;2022-07-11T07:16:16;3.53;;;0.50;;
20381;SDS011;10350;51.280;12.400;2022-07-11T07:18:41;2.17;;;0.30;;
20381;SDS011;10350;51.280;12.400;2022-07-11T07:21:10;0.68;;;0.32;;
20381;SDS011;10350;51.280;12.400;2022-07-11T07:23:37;0.52;;;0.20;;
20381;SDS011;10350;51.280;12.400;2022-07-11T07:26:03;0.90;;;0.30;;
20381;SDS011;10350;51.280;12.400;2022-07-11T07:28:29;2.58;;;0.50;;
20381;SDS011;10350;51.280;12.400;2022-07-11T07:30:56;1.10;;;0.28;;
20381;SDS011;10350;51.280;12.400;2022-07-11T07:33:22;1.92;;;0.25;;
20381;SDS011;10350;51.280;12.400;2022-07-11T07:35:48;0.90;;;0.40;;
20381;SDS011;10350;51.280;12.400;2022-07-11T07:38:14;0.85;;;0.45;;
20381;SDS011;10350;51.280;12.400;2022-07-11T07:40:40;1.75;;;0.35;;
20381;SDS011;10350;51.280;12.400;2022-07-11T07:43:06;0.68;;;0.30;;
20381;SDS011;10350;51.280;12.400;2022-07-11T07:45:32;0.85;;;0.50;;
20381;SDS011;10350;51.280;12.400;2022-07-11T07:47:58;0.10;;;0.10;;
20381;SDS011;10350;51.280;12.400;2022-07-11T07:50:24;0.40;;;0.15;;
20381;SDS011;10350;51.280;12.400;2022-07-11T07:52:50;0.95;;;0.25;;
20381;SDS011;10350;51.280;12.400;2022-07-11T07:55:16;0.47;;;0.17;;
20381;SDS011;10350;51.280;12.400;2022-07-11T07:57:43;1.58;;;0.15;;
20381;SDS011;10350;51.280;12.400;2022-07-11T08:00:09;0.70;;;0.10;;
20381;SDS011;10350;51.280;12.400;2022-07-11T08:02:54;0.52;;;0.20;;
20381;SDS011;10350;51.280;12.400;2022-07-11T08:05:20;0.70;;;0.30;;
20381;SDS011;10350;51.280;12.400;2022-07-11T08:07:46;1.55;;;0.20;;
20381;SDS011;10350;51.280;12.400;2022-07-11T08:10:12;0.38;;;0.25;;
20381;SDS011;10350;51.280;12.400;2022-07-11T08:12:39;1.33;;;0.10;;
20381;SDS011;10350;51.280;12.400;2022-07-11T08:15:05;1.98;;;0.40;;
20381;SDS011;10350;51.280;12.400;2022-07-11T08:17:31;1.15;;;0.28;;
20381;SDS011;10350;51.280;12.400;2022-07-11T08:19:57;2.10;;;0.20;;
20381;SDS011;10350;51.280;12.400;2022-07-11T08:22:23;3.53;;;0.28;;
20381;SDS011;10350;51.280;12.400;2022-07-11T08:24:50;1.40;;;0.20;;
20381;SDS011;10350;51.280;12.400;2022-07-11T08:27:16;0.38;;;0.10;;
20381;SDS011;10350;51.280;12.400;2022-07-11T08:29:42;3.80;;;0.50;;
20381;SDS011;10350;51.280;12.400;2022-07-11T08:32:09;0.22;;;0.17;;
20381;SDS011;10350;51.280;12.400;2022-07-11T08:34:36;0.40;;;0.10;;
20381;SDS011;10350;51.280;12.400;2022-07-11T08:37:02;0.43;;;0.22;;
20381;SDS011;10350;51.280;12.400;2022-07-11T08:39:28;0.77;;;0.13;;
20381;SDS011;10350;51.280;12.400;2022-07-11T08:41:54;1.90;;;0.25;;
20381;SDS011;10350;51.280;12.400;2022-07-11T08:44:20;0.17;;;0.08;;
20381;SDS011;10350;51.280;12.400;2022-07-11T08:46:46;1.25;;;0.20;;
20381;SDS011;10350;51.280;12.400;2022-07-11T08:49:13;1.05;;;0.30;;
20381;SDS011;10350;51.280;12.400;2022-07-11T08:51:39;0.82;;;0.15;;
20381;SDS011;10350;51.280;12.400;2022-07-11T08:54:05;0.57;;;0.20;;
20381;SDS011;10350;51.280;12.400;2022-07-11T08:56:31;0.20;;;0.10;;
20381;SDS011;10350;51.280;12.400;2022-07-11T08:58:58;0.35;;;0.20;;
20381;SDS011;10350;51.280;12.400;2022-07-11T09:01:28;0.30;;;0.22;;
20381;SDS011;10350;51.280;12.400;2022-07-11T09:03:54;0.30;;;0.30;;
20381;SDS011;10350;51.280;12.400;2022-07-11T09:06:20;0.40;;;0.30;;
20381;SDS011;10350;51.280;12.400;2022-07-11T09:08:46;3.10;;;0.43;;
20381;SDS011;10350;51.280;12.400;2022-07-11T09:11:12;1.75;;;0.40;;
20381;SDS011;10350;51.280;12.400;2022-07-11T09:13:38;0.68;;;0.20;;
20381;SDS011;10350;51.280;12.400;2022-07-11T09:16:05;3.28;;;0.40;;
20381;SDS011;10350;51.280;12.400;2022-07-11T09:18:33;0.63;;;0.20;;
20381;SDS011;10350;51.280;12.400;2022-07-11T09:21:00;0.40;;;0.20;;
20381;SDS011;10350;51.280;12.400;2022-07-11T09:23:46;0.17;;;0.10;;
20381;SDS011;10350;51.280;12.400;2022-07-11T09:26:31;0.43;;;0.10;;
20381;SDS011;10350;51.280;12.400;2022-07-11T09:28:58;0.93;;;0.25;;
20381;SDS011;10350;51.280;12.400;2022-07-11T09:31:26;1.20;;;0.30;;
20381;SDS011;10350;51.280;12.400;2022-07-11T09:33:59;3.33;;;0.30;;
20381;SDS011;10350;51.280;12.400;2022-07-11T09:36:36;2.70;;;0.20;;
20381;SDS011;10350;51.280;12.400;2022-07-11T09:39:02;0.35;;;0.20;;
20381;SDS011;10350;51.280;12.400;2022-07-11T09:41:32;0.57;;;0.20;;
20381;SDS011;10350;51.280;12.400;2022-07-11T09:44:05;1.17;;;0.20;;
20381;SDS011;10350;51.280;12.400;2022-07-11T09:46:31;7.25;;;0.70;;
20381;SDS011;10350;51.280;12.400;2022-07-11T09:48:59;2.05;;;0.20;;
20381;SDS011;10350;51.280;12.400;2022-07-11T09:51:26;1.08;;;0.20;;
20381;SDS011;10350;51.280;12.400;2022-07-11T09:53:55;0.95;;;0.22;;
20381;SDS011;10350;51.280;12.400;2022-07-11T09:56:26;2.28;;;0.30;;
20381;SDS011;10350;51.280;12.400;2022-07-11T09:59:02;1.38;;;0.47;;
20381;SDS011;10350;51.280;12.400;2022-07-11T10:01:28;1.30;;;0.20;;
20381;SDS011;10350;51.280;12.400;2022-07-11T10:03:54;0.57;;;0.45;;
20381;SDS011;10350;51.280;12.400;2022-07-11T10:06:21;3.05;;;0.50;;
20381;SDS011;10350;51.280;12.400;2022-07-11T10:08:47;2.67;;;0.13;;
20381;SDS011;10350;51.280;12.400;2022-07-11T10:11:13;0.65;;;0.40;;
20381;SDS011;10350;51.280;12.400;2022-07-11T10:13:39;2.33;;;0.40;;
20381;SDS011;10350;51.280;12.400;2022-07-11T10:16:08;0.35;;;0.20;;
20381;SDS011;10350;51.280;12.400;2022-07-11T10:18:42;1.25;;;0.15;;
20381;SDS011;10350;51.280;12.400;2022-07-11T10:21:32;1.17;;;0.40;;
20381;SDS011;10350;51.280;12.400;2022-07-11T10:23:58;0.52;;;0.40;;
20381;SDS011;10350;51.280;12.400;2022-07-11T10:26:32;0.93;;;0.20;;
20381;SDS011;10350;51.280;12.400;2022-07-11T10:29:05;0.25;;;0.20;;
20381;SDS011;10350;51.280;12.400;2022-07-11T10:31:33;0.20;;;0.20;;
20381;SDS011;10350;51.280;12.400;2022-07-11T10:34:00;2.28;;;0.30;;
20381;SDS011;10350;51.280;12.400;2022-07-11T10:36:27;0.80;;;0.40;;
20381;SDS011;10350;51.280;12.400;2022-07-11T10:41:39;0.38;;;0.20;;
20381;SDS011;10350;51.280;12.400;2022-07-11T10:44:05;1.83;;;0.20;;
20381;SDS011;10350;51.280;12.400;2022-07-11T10:46:31;0.50;;;0.20;;
20381;SDS011;10350;51.280;12.400;2022-07-11T10:54:28;0.65;;;0.17;;
20381;SDS011;10350;51.280;12.400;2022-07-11T10:59:34;1.55;;;0.28;;
20381;SDS011;10350;51.280;12.400;2022-07-11T11:02:20;0.98;;;0.25;;
20381;SDS011;10350;51.280;12.400;2022-07-11T11:04:56;1.23;;;0.13;;
20381;SDS011;10350;51.280;12.400;2022-07-11T11:07:29;0.90;;;0.30;;
20381;SDS011;10350;51.280;12.400;2022-07-11T11:09:55;0.40;;;0.20;;
20381;SDS011;10350;51.280;12.400;2022-07-11T11:28:30;0.88;;;0.20;;
20381;SDS011;10350;51.280;12.400;2022-07-11T11:30:56;1.13;;;0.30;;
20381;SDS011;10350;51.280;12.400;2022-07-11T11:33:26;0.90;;;0.40;;
20381;SDS011;10350;51.280;12.400;2022-07-11T11:36:02;0.22;;;0.22;;
20381;SDS011;10350;51.280;12.400;2022-07-11T11:38:29;0.20;;;0.20;;
20381;SDS011;10350;51.280;12.400;2022-07-11T11:40:55;0.95;;;0.30;;
20381;SDS011;10350;51.280;12.400;2022-07-11T11:43:21;0.50;;;0.20;;
20381;SDS011;10350;51.280;12.400;2022-07-11T11:45:52;4.18;;;0.40;;
20381;SDS011;10350;51.280;12.400;2022-07-11T11:48:28;1.42;;;0.40;;
20381;SDS011;10350;51.280;12.400;2022-07-11T11:51:00;0.20;;;0.20;;
20381;SDS011;10350;51.280;12.400;2022-07-11T11:53:26;1.65;;;0.30;;
20381;SDS011;10350;51.280;12.400;2022-07-11T11:55:52;0.75;;;0.30;;
20381;SDS011;10350;51.280;12.400;2022-07-11T11:58:18;0.45;;;0.22;;
20381;SDS011;10350;51.280;12.400;2022-07-11T12:00:53;0.50;;;0.32;;
20381;SDS011;10350;51.280;12.400;2022-07-11T12:03:19;0.60;;;0.30;;
20381;SDS011;10350;51.280;12.400;2022-07-11T12:05:58;0.55;;;0.30;;
20381;SDS011;10350;51.280;12.400;2022-07-11T12:08:24;0.22;;;0.22;;
20381;SDS011;10350;51.280;12.400;2022-07-11T12:10:54;1.67;;;0.30;;
20381;SDS011;10350;51.280;12.400;2022-07-11T12:13:20;1.27;;;0.20;;
20381;SDS011;10350;51.280;12.400;2022-07-11T12:15:46;0.68;;;0.40;;
20381;SDS011;10350;51.280;12.400;2022-07-11T12:18:36;0.30;;;0.30;;
20381;SDS011;10350;51.280;12.400;2022-07-11T12:21:09;1.27;;;0.38;;
20381;SDS011;10350;51.280;12.400;2022-07-11T12:23:35;0.47;;;0.28;;
20381;SDS011;10350;51.280;12.400;2022-07-11T12:26:02;0.68;;;0.40;;
20381;SDS011;10350;51.280;12.400;2022-07-11T12:29:01;0.65;;;0.30;;
20381;SDS011;10350;51.280;12.400;2022-07-11T12:31:26;1.13;;;0.40;;
20381;SDS011;10350;51.280;12.400;2022-07-11T12:33:52;2.20;;;0.30;;
20381;SDS011;10350;51.280;12.400;2022-07-11T12:36:18;0.13;;;0.13;;
20381;SDS011;10350;51.280;12.400;2022-07-11T12:38:57;0.20;;;0.20;;
20381;SDS011;10350;51.280;12.400;2022-07-11T12:41:29;2.60;;;0.35;;
20381;SDS011;10350;51.280;12.400;2022-07-11T12:43:56;0.45;;;0.20;;
20381;SDS011;10350;51.280;12.400;2022-07-11T12:46:40;1.40;;;0.32;;
20381;SDS011;10350;51.280;12.400;2022-07-11T12:49:08;0.82;;;0.30;;
20381;SDS011;10350;51.280;12.400;2022-07-11T12:51:38;2.83;;;0.25;;
20381;SDS011;10350;51.280;12.400;2022-07-11T12:54:06;0.60;;;0.30;;
20381;SDS011;10350;51.280;12.400;2022-07-11T12:56:33;0.98;;;0.22;;
20381;SDS011;10350;51.280;12.400;2022-07-11T12:58:59;1.10;;;0.20;;
20381;SDS011;10350;51.280;12.400;2022-07-11T13:01:26;0.45;;;0.30;;
20381;SDS011;10350;51.280;12.400;2022-07-11T13:03:52;0.10;;;0.10;;
20381;SDS011;10350;51.280;12.400;2022-07-11T13:06:19;0.13;;;0.13;;
20381;SDS011;10350;51.280;12.400;2022-07-11T13:09:04;1.50;;;0.20;;
20381;SDS011;10350;51.280;12.400;2022-07-11T13:11:30;0.80;;;0.13;;
20381;SDS011;10350;51.280;12.400;2022-07-11T13:13:57;3.85;;;0.25;;
20381;SDS011;10350;51.280;12.400;2022-07-11T13:16:23;0.65;;;0.17;;
20381;SDS011;10350;51.280;12.400;2022-07-11T13:18:49;0.28;;;0.20;;
20381;SDS011;10350;51.280;12.400;2022-07-11T13:21:15;1.55;;;0.30;;
20381;SDS011;10350;51.280;12.400;2022-07-11T13:23:42;3.03;;;0.20;;
20381;SDS011;10350;51.280;12.400;2022-07-11T13:26:08;1.00;;;0.25;;
20381;SDS011;10350;51.280;12.400;2022-07-11T13:28:35;2.60;;;0.40;;
20381;SDS011;10350;51.280;12.400;2022-07-11T13:31:01;0.95;;;0.22;;
20381;SDS011;10350;51.280;12.400;2022-07-11T13:33:31;1.08;;;0.20;;
20381;SDS011;10350;51.280;12.400;2022-07-11T13:35:58;2.78;;;0.30;;
20381;SDS011;10350;51.280;12.400;2022-07-11T13:38:24;1.17;;;0.30;;
20381;SDS011;10350;51.280;12.400;2022-07-11T13:40:53;0.52;;;0.30;;
20381;SDS011;10350;51.280;12.400;2022-07-11T13:43:19;1.45;;;0.20;;
20381;SDS011;10350;51.280;12.400;2022-07-11T13:45:45;0.32;;;0.22;;
20381;SDS011;10350;51.280;12.400;2022-07-11T13:48:13;0.55;;;0.30;;
20381;SDS011;10350;51.280;12.400;2022-07-11T13:50:39;0.30;;;0.20;;
20381;SDS011;10350;51.280;12.400;2022-07-11T13:53:05;0.82;;;0.20;;
20381;SDS011;10350;51.280;12.400;2022-07-11T13:55:31;0.40;;;0.20;;
20381;SDS011;10350;51.280;12.400;2022-07-11T13:57:58;0.50;;;0.20;;
20381;SDS011;10350;51.280;12.400;2022-07-11T14:00:24;0.65;;;0.30;;
20381;SDS011;10350;51.280;12.400;2022-07-11T14:02:50;1.55;;;0.20;;
20381;SDS011;10350;51.280;12.400;2022-07-11T14:05:17;3.17;;;0.47;;
20381;SDS011;10350;51.280;12.400;2022-07-11T14:07:43;0.65;;;0.30;;
20381;SDS011;10350;51.280;12.400;2022-07-11T14:10:09;6.22;;;0.35;;
20381;SDS011;10350;51.280;12.400;2022-07-11T14:12:36;1.45;;;0.38;;
20381;SDS011;10350;51.280;12.400;2022-07-11T14:15:02;2.50;;;0.22;;
20381;SDS011;10350;51.280;12.400;2022-07-11T14:17:28;0.98;;;0.20;;
20381;SDS011;10350;51.280;12.400;2022-07-11T14:19:54;2.38;;;0.30;;
20381;SDS011;10350;51.280;12.400;2022-07-11T14:22:22;0.82;;;0.30;;
20381;SDS011;10350;51.280;12.400;2022-07-11T14:24:47;1.55;;;0.32;;
20381;SDS011;10350;51.280;12.400;2022-07-11T14:27:14;0.88;;;0.43;;
20381;SDS011;10350;51.280;12.400;2022-07-11T14:29:41;0.68;;;0.25;;
20381;SDS011;10350;51.280;12.400;2022-07-11T14:32:09;1.92;;;0.30;;
20381;SDS011;10350;51.280;12.400;2022-07-11T14:34:36;0.52;;;0.30;;
20381;SDS011;10350;51.280;12.400;2022-07-11T14:37:03;1.45;;;0.68;;
20381;SDS011;10350;51.280;12.400;2022-07-11T14:39:29;0.50;;;0.30;;
20381;SDS011;10350;51.280;12.400;2022-07-11T14:41:56;1.50;;;0.40;;
20381;SDS011;10350;51.280;12.400;2022-07-11T14:44:23;1.58;;;0.30;;
20381;SDS011;10350;51.280;12.400;2022-07-11T14:46:48;0.85;;;0.30;;
20381;SDS011;10350;51.280;12.400;2022-07-11T14:49:14;0.30;;;0.20;;
20381;SDS011;10350;51.280;12.400;2022-07-11T14:51:40;0.10;;;0.10;;
20381;SDS011;10350;51.280;12.400;2022-07-11T14:54:06;0.30;;;0.30;;
20381;SDS011;10350;51.280;12.400;2022-07-11T14:56:33;0.55;;;0.30;;
20381;SDS011;10350;51.280;12.400;2022-07-11T14:58:59;0.38;;;0.20;;
20381;SDS011;10350;51.280;12.400;2022-07-11T15:01:25;0.43;;;0.20;;